createdAt,value
2023-04-23T00:00:34.583Z,18.48
2023-04-23T00:03:09.640Z,17.83
2023-04-23T00:05:42.148Z,19.10
2023-04-23T00:08:12.038Z,19.88
2023-04-23T00:10:39.346Z,20.00
2023-04-23T00:13:15.851Z,19.05
2023-04-23T00:15:43.368Z,18.95
2023-04-23T00:18:10.541Z,19.75
2023-04-23T00:20:37.677Z,20.17
2023-04-23T00:23:04.744Z,19.00
2023-04-23T00:25:32.067Z,20.98
2023-04-23T00:27:59.212Z,20.35
2023-04-23T00:30:26.274Z,19.67
2023-04-23T00:32:56.562Z,20.40
2023-04-23T00:35:23.687Z,20.83
2023-04-23T00:37:50.742Z,20.00
2023-04-23T00:40:18.029Z,21.65
2023-04-23T00:42:45.944Z,22.35
2023-04-23T00:45:13.305Z,20.63
2023-04-23T00:47:41.383Z,20.15
2023-04-23T00:50:08.956Z,20.85
2023-04-23T00:52:36.266Z,20.60
2023-04-23T00:55:05.285Z,20.38
2023-04-23T00:57:32.855Z,21.00
2023-04-23T01:00:00.767Z,20.95
2023-04-23T01:02:30.605Z,20.73
2023-04-23T01:05:00.079Z,22.25
2023-04-23T01:07:28.705Z,21.20
2023-04-23T01:09:56.184Z,21.90
2023-04-23T01:12:23.806Z,21.58
2023-04-23T01:14:51.141Z,21.50
2023-04-23T01:17:18.457Z,22.15
2023-04-23T01:19:46.271Z,21.67
2023-04-23T01:22:15.123Z,21.00
2023-04-23T01:24:43.067Z,22.20
2023-04-23T01:27:11.291Z,22.02
2023-04-23T01:29:42.482Z,21.75
2023-04-23T01:32:09.980Z,20.33
2023-04-23T01:34:39.607Z,21.73
2023-04-23T01:37:07.455Z,22.27
2023-04-23T01:39:37.777Z,22.60
2023-04-23T01:42:07.273Z,21.83
2023-04-23T01:44:34.678Z,21.80
2023-04-23T01:47:02.051Z,21.33
2023-04-23T01:49:29.345Z,23.50
2023-04-23T01:51:56.446Z,21.80
2023-04-23T01:54:23.652Z,22.15
2023-04-23T01:56:54.814Z,23.08
2023-04-23T01:59:23.036Z,23.23
2023-04-23T02:01:50.478Z,22.50
2023-04-23T02:04:18.513Z,21.50
2023-04-23T02:06:49.820Z,22.08
2023-04-23T02:09:17.200Z,22.20
2023-04-23T02:11:44.340Z,23.33
2023-04-23T02:14:14.151Z,21.75
2023-04-23T02:16:41.785Z,21.67
2023-04-23T02:19:08.867Z,21.58
2023-04-23T02:21:35.997Z,21.55
2023-04-23T02:24:03.561Z,21.30
2023-04-23T02:26:33.290Z,21.42
2023-04-23T02:29:00.454Z,21.38
2023-04-23T02:31:27.682Z,21.33
2023-04-23T02:33:55.266Z,21.77
2023-04-23T02:36:22.398Z,21.60
2023-04-23T02:38:51.238Z,20.42
2023-04-23T02:41:18.487Z,20.92
2023-04-23T02:43:45.842Z,21.90
2023-04-23T02:46:12.994Z,21.23
2023-04-23T02:48:42.083Z,21.05
2023-04-23T02:51:11.591Z,21.63
2023-04-23T02:53:38.885Z,21.05
2023-04-23T02:56:07.525Z,20.13
2023-04-23T02:58:35.294Z,20.55
2023-04-23T03:01:04.099Z,19.67
2023-04-23T03:06:04.810Z,20.60
2023-04-23T03:08:31.917Z,20.27
2023-04-23T03:10:59.176Z,19.20
2023-04-23T03:13:27.086Z,19.42
2023-04-23T03:15:54.984Z,19.58
2023-04-23T03:18:22.254Z,19.33
2023-04-23T03:20:52.869Z,19.02
2023-04-23T03:23:20.498Z,19.52
2023-04-23T03:25:48.838Z,18.63
2023-04-23T03:28:16.260Z,19.73
2023-04-23T03:30:44.610Z,19.60
2023-04-23T03:33:12.012Z,19.33
2023-04-23T03:35:39.107Z,19.23
2023-04-23T03:38:11.865Z,19.00
2023-04-23T03:40:39.126Z,18.85
2023-04-23T03:43:08.828Z,19.80
2023-04-23T03:45:54.509Z,19.48
2023-04-23T03:48:22.598Z,20.25
2023-04-23T03:50:50.373Z,20.35
2023-04-23T03:53:37.094Z,19.73
2023-04-23T03:56:22.442Z,19.27
2023-04-23T03:58:59.851Z,19.13
2023-04-23T04:01:27.022Z,19.33
2023-04-23T04:03:54.290Z,20.95
2023-04-23T04:06:23.463Z,21.73
2023-04-23T04:08:50.528Z,21.85
2023-04-23T04:11:17.836Z,19.77
2023-04-23T04:13:45.031Z,20.45
2023-04-23T04:16:12.479Z,21.20
2023-04-23T04:18:39.571Z,20.98
2023-04-23T04:21:07.634Z,20.83
2023-04-23T04:23:35.203Z,21.20
2023-04-23T04:26:02.697Z,21.05
2023-04-23T04:28:36.467Z,19.20
2023-04-23T04:31:07.159Z,20.92
2023-04-23T04:33:40.068Z,22.10
2023-04-23T04:36:09.539Z,20.80
2023-04-23T04:38:38.038Z,20.30
2023-04-23T04:41:05.458Z,21.10
2023-04-23T04:43:34.558Z,20.88
2023-04-23T04:46:02.246Z,21.98
2023-04-23T04:48:32.423Z,20.70
2023-04-23T04:50:59.710Z,20.48
2023-04-23T04:53:26.894Z,21.10
2023-04-23T04:55:58.345Z,22.42
2023-04-23T04:58:25.582Z,21.00
2023-04-23T05:00:56.185Z,21.00
2023-04-23T05:03:27.175Z,21.60
2023-04-23T05:05:59.124Z,22.30
2023-04-23T05:10:54.390Z,20.40
2023-04-23T05:13:21.967Z,20.52
2023-04-23T05:15:51.725Z,21.10
2023-04-23T05:18:21.686Z,21.10
2023-04-23T05:20:49.122Z,21.88
2023-04-23T05:23:16.871Z,20.95
2023-04-23T05:25:44.113Z,21.15
2023-04-23T05:28:13.406Z,21.70
2023-04-23T05:30:40.618Z,21.55
2023-04-23T05:33:07.721Z,21.33
2023-04-23T05:35:34.899Z,20.52
2023-04-23T05:38:03.116Z,21.33
2023-04-23T05:40:30.911Z,22.95
2023-04-23T05:43:01.571Z,20.98
2023-04-23T05:45:29.077Z,21.25
2023-04-23T05:47:56.231Z,21.23
2023-04-23T05:50:27.817Z,20.67
2023-04-23T05:52:55.633Z,21.90
2023-04-23T05:55:24.770Z,20.48
2023-04-23T05:57:52.035Z,20.30
2023-04-23T06:00:21.509Z,20.38
2023-04-23T06:02:49.204Z,22.10
2023-04-23T06:05:16.903Z,21.65
2023-04-23T06:07:44.540Z,21.73
2023-04-23T06:10:13.520Z,21.95
2023-04-23T06:12:42.501Z,21.73
2023-04-23T06:15:10.408Z,22.58
2023-04-23T06:17:39.165Z,21.85
2023-04-23T06:20:09.254Z,22.33
2023-04-23T06:22:41.935Z,21.83
2023-04-23T06:25:10.352Z,20.55
2023-04-23T06:27:38.846Z,21.17
2023-04-23T06:30:16.076Z,21.73
2023-04-23T06:32:45.987Z,22.30
2023-04-23T06:35:13.426Z,21.77
2023-04-23T06:37:41.081Z,22.23
2023-04-23T06:40:08.745Z,22.48
2023-04-23T06:42:36.027Z,21.42
2023-04-23T06:45:15.472Z,22.88
2023-04-23T06:47:42.928Z,22.15
2023-04-23T06:50:12.944Z,22.88
2023-04-23T06:52:40.571Z,22.30
2023-04-23T06:55:09.595Z,22.13
2023-04-23T06:57:36.936Z,23.25
2023-04-23T07:00:11.374Z,22.77
2023-04-23T07:02:41.646Z,22.65
2023-04-23T07:05:10.701Z,23.17
2023-04-23T07:07:38.573Z,21.83
2023-04-23T07:10:34.208Z,23.10
2023-04-23T07:13:15.861Z,22.05
2023-04-23T07:15:43.731Z,23.45
2023-04-23T07:18:11.177Z,22.98
2023-04-23T07:20:42.908Z,22.30
2023-04-23T07:23:10.586Z,23.38
2023-04-23T07:25:39.381Z,24.02
2023-04-23T07:28:12.990Z,24.77
2023-04-23T07:30:40.298Z,24.20
2023-04-23T07:33:07.745Z,25.08
2023-04-23T07:35:35.083Z,23.83
2023-04-23T07:38:02.191Z,24.10
2023-04-23T07:40:29.519Z,22.92
2023-04-23T07:42:59.003Z,24.60
2023-04-23T07:45:26.130Z,23.40
2023-04-23T07:47:57.065Z,23.05
2023-04-23T07:50:26.584Z,22.08
2023-04-23T07:52:55.071Z,22.60
2023-04-23T07:55:22.353Z,24.10
2023-04-23T07:57:49.744Z,24.33
2023-04-23T08:00:17.121Z,22.38
2023-04-23T08:02:44.385Z,23.05
2023-04-23T08:05:32.980Z,22.20
2023-04-23T08:08:00.438Z,23.05
2023-04-23T08:10:30.058Z,23.08
2023-04-23T08:12:57.228Z,24.08
2023-04-23T08:15:24.376Z,24.40
2023-04-23T08:17:51.919Z,23.80
2023-04-23T08:20:19.661Z,24.55
2023-04-23T08:22:57.054Z,24.35
2023-04-23T08:25:25.565Z,23.52
2023-04-23T08:27:52.781Z,23.92
2023-04-23T08:30:20.215Z,23.83
2023-04-23T08:32:53.926Z,23.13
2023-04-23T08:35:24.390Z,23.27
2023-04-23T08:37:51.748Z,23.63
2023-04-23T08:40:21.764Z,24.25
2023-04-23T08:43:18.283Z,24.60
2023-04-23T08:45:49.853Z,24.13
2023-04-23T08:48:27.145Z,24.15
2023-04-23T08:54:27.524Z,22.65
2023-04-23T08:57:02.773Z,22.30
2023-04-23T08:59:55.355Z,22.67
2023-04-23T09:03:29.139Z,21.48
2023-04-23T09:06:02.045Z,19.30
2023-04-23T09:08:41.749Z,18.48
2023-04-23T09:11:10.608Z,18.85
2023-04-23T09:13:38.757Z,17.50
2023-04-23T09:16:11.759Z,18.73
2023-04-23T09:18:45.184Z,18.13
2023-04-23T09:21:45.093Z,16.47
2023-04-23T09:24:14.900Z,17.10
2023-04-23T09:26:50.207Z,16.60
2023-04-23T09:29:23.652Z,17.52
2023-04-23T09:32:11.889Z,15.77
2023-04-23T09:34:39.865Z,15.85
2023-04-23T09:37:13.902Z,13.63
2023-04-23T09:39:41.546Z,13.02
2023-04-23T09:42:11.530Z,12.63
2023-04-23T09:44:38.688Z,10.48
2023-04-23T09:47:12.401Z,11.30
2023-04-23T09:49:50.216Z,10.38
2023-04-23T09:52:18.566Z,10.63
2023-04-23T09:54:48.528Z,10.50
2023-04-23T09:57:24.299Z,12.48
2023-04-23T10:02:48.350Z,10.25
2023-04-23T10:05:45.333Z,11.27
2023-04-23T10:12:31.379Z,14.57
2023-04-23T10:15:19.755Z,14.20
2023-04-23T10:17:51.734Z,13.65
2023-04-23T10:20:24.910Z,13.75
2023-04-23T10:28:52.337Z,14.75
2023-04-23T10:31:34.797Z,13.95
2023-04-23T10:34:14.581Z,13.27
2023-04-23T10:39:44.186Z,14.13
2023-04-23T10:42:31.328Z,14.98
2023-04-23T10:45:16.443Z,14.20
2023-04-23T10:47:59.307Z,15.07
2023-04-23T10:50:29.617Z,14.00
2023-04-23T10:53:36.522Z,14.10
2023-04-23T10:56:09.362Z,13.57
2023-04-23T10:59:04.647Z,12.57
2023-04-23T11:01:44.613Z,11.57
2023-04-23T11:04:33.274Z,11.77
2023-04-23T11:07:08.931Z,10.65
2023-04-23T11:09:44.019Z,10.75
2023-04-23T11:12:32.942Z,11.25
2023-04-23T11:15:11.004Z,10.40
2023-04-23T11:17:45.101Z,10.35
2023-04-23T11:20:21.869Z,9.93
2023-04-23T11:23:02.907Z,8.80
2023-04-23T11:25:44.795Z,8.35
2023-04-23T11:28:12.421Z,7.65
2023-04-23T11:30:42.771Z,7.68
2023-04-23T11:35:51.288Z,7.80
2023-04-23T11:38:46.944Z,6.65
2023-04-23T11:41:22.800Z,5.93
2023-04-23T11:43:57.744Z,6.35
2023-04-23T11:46:25.466Z,6.07
2023-04-23T11:48:57.092Z,5.00
2023-04-23T11:51:33.825Z,4.90
2023-04-23T11:54:05.381Z,5.85
2023-04-23T11:56:46.100Z,5.40
2023-04-23T11:59:16.166Z,6.05
2023-04-23T12:01:45.802Z,4.57
2023-04-23T12:05:23.924Z,5.05
2023-04-23T12:08:02.256Z,5.18
2023-04-23T12:10:29.900Z,5.07
2023-04-23T12:16:16.557Z,4.32
2023-04-23T12:18:54.049Z,4.35
2023-04-23T12:21:43.646Z,4.05
2023-04-23T12:28:10.599Z,4.72
2023-04-23T12:33:42.756Z,3.67
2023-04-23T12:36:25.938Z,3.95
2023-04-23T12:46:06.048Z,4.20
2023-04-23T12:48:34.416Z,4.78
2023-04-23T12:51:04.737Z,4.45
2023-04-23T12:53:35.363Z,4.90
2023-04-23T13:02:31.399Z,5.22
2023-04-23T13:05:04.867Z,4.80
2023-04-23T13:07:37.396Z,4.22
2023-04-23T13:10:11.564Z,4.20
2023-04-23T13:12:44.302Z,4.93
2023-04-23T13:15:33.851Z,4.18
2023-04-23T13:18:01.756Z,3.67
2023-04-23T13:20:40.463Z,3.70
2023-04-23T13:23:10.669Z,4.30
2023-04-23T13:28:44.918Z,5.18
2023-04-23T13:31:15.123Z,5.00
2023-04-23T13:33:42.694Z,4.78
2023-04-23T13:36:10.266Z,4.68
2023-04-23T13:38:49.303Z,4.55
2023-04-23T13:41:38.719Z,4.68
2023-04-23T13:44:14.156Z,4.07
2023-04-23T13:46:42.553Z,4.95
2023-04-23T13:49:11.528Z,4.85
2023-04-23T13:51:44.230Z,5.38
2023-04-23T13:54:17.571Z,5.80
2023-04-23T14:00:03.460Z,4.80
2023-04-23T14:02:32.056Z,4.47
2023-04-23T14:05:09.987Z,4.28
2023-04-23T14:07:40.071Z,4.18
2023-04-23T14:10:07.978Z,4.22
2023-04-23T14:12:43.524Z,4.30
2023-04-23T14:15:13.246Z,4.25
2023-04-23T14:17:43.281Z,4.55
2023-04-23T14:20:13.337Z,3.88
2023-04-23T14:22:50.030Z,4.60
2023-04-23T14:25:32.312Z,3.70
2023-04-23T14:28:37.380Z,3.65
2023-04-23T14:31:06.586Z,4.35
2023-04-23T14:33:39.054Z,4.57
2023-04-23T14:36:16.332Z,4.07
2023-04-23T14:38:52.504Z,4.28
2023-04-23T14:41:30.200Z,4.22
2023-04-23T14:44:05.020Z,4.47
2023-04-23T14:46:45.303Z,4.70
2023-04-23T14:49:16.290Z,4.07
2023-04-23T14:51:48.796Z,3.95
2023-04-23T14:54:27.606Z,5.45
2023-04-23T14:56:55.454Z,5.20
2023-04-23T14:59:27.991Z,4.72
2023-04-23T15:02:02.462Z,4.70
2023-04-23T15:04:39.419Z,5.28
2023-04-23T15:10:09.246Z,4.32
2023-04-23T15:13:03.260Z,4.60
2023-04-23T15:16:03.132Z,4.00
2023-04-23T15:18:30.601Z,4.25
2023-04-23T15:20:58.180Z,4.10
2023-04-23T15:23:31.411Z,4.20
2023-04-23T15:26:03.795Z,3.63
2023-04-23T15:28:32.039Z,3.67
2023-04-23T15:31:01.135Z,4.15
2023-04-23T15:33:34.331Z,3.45
2023-04-23T15:36:09.029Z,3.85
2023-04-23T15:38:39.405Z,3.60
2023-04-23T15:41:09.099Z,3.17
2023-04-23T15:43:36.136Z,3.60
2023-04-23T15:46:03.358Z,3.00
2023-04-23T15:48:31.140Z,3.70
2023-04-23T15:50:58.426Z,3.60
2023-04-23T15:53:34.356Z,3.60
2023-04-23T15:56:01.872Z,3.85
2023-04-23T15:58:32.068Z,3.50
2023-04-23T16:01:00.920Z,3.90
2023-04-23T16:03:28.783Z,3.65
2023-04-23T16:05:58.618Z,2.95
2023-04-23T16:08:26.174Z,2.80
2023-04-23T16:10:53.386Z,2.92
2023-04-23T16:13:20.607Z,3.20
2023-04-23T16:15:48.595Z,3.38
2023-04-23T16:18:18.112Z,3.28
2023-04-23T16:20:45.277Z,3.33
2023-04-23T16:23:12.531Z,3.22
2023-04-23T16:25:49.075Z,3.00
2023-04-23T16:28:17.866Z,2.88
2023-04-23T16:30:45.016Z,2.80
2023-04-23T16:33:14.725Z,3.15
2023-04-23T16:35:42.180Z,3.17
2023-04-23T16:38:11.848Z,2.97
2023-04-23T16:40:39.970Z,3.28
2023-04-23T16:43:17.808Z,3.38
2023-04-23T16:45:45.492Z,3.38
2023-04-23T16:48:16.768Z,3.30
2023-04-23T16:50:44.538Z,2.97
2023-04-23T16:53:13.594Z,2.90
2023-04-23T16:55:42.909Z,3.10
2023-04-23T16:58:12.686Z,3.35
2023-04-23T17:00:40.236Z,3.05
2023-04-23T17:03:08.210Z,2.80
2023-04-23T17:05:41.792Z,2.65
2023-04-23T17:08:08.928Z,2.80
2023-04-23T17:10:36.227Z,2.75
2023-04-23T17:13:13.734Z,3.33
2023-04-23T17:15:41.709Z,3.42
2023-04-23T17:18:10.565Z,3.60
2023-04-23T17:20:38.460Z,3.58
2023-04-23T17:23:05.723Z,3.25
2023-04-23T17:25:33.082Z,3.50
2023-04-23T17:28:00.421Z,4.22
2023-04-23T17:30:27.571Z,4.20
2023-04-23T17:32:55.919Z,4.50
2023-04-23T17:35:23.817Z,4.70
2023-04-23T17:37:53.076Z,4.55
2023-04-23T17:40:21.239Z,4.53
2023-04-23T17:42:50.649Z,4.18
2023-04-23T17:45:18.741Z,4.47
2023-04-23T17:47:47.904Z,4.80
2023-04-23T17:50:15.093Z,4.50
2023-04-23T17:52:44.278Z,5.03
2023-04-23T17:55:12.204Z,5.65
2023-04-23T17:57:42.533Z,5.35
2023-04-23T18:00:14.606Z,5.70
2023-04-23T18:02:42.183Z,5.50
2023-04-23T18:05:11.118Z,5.90
2023-04-23T18:07:46.572Z,5.57
2023-04-23T18:10:13.920Z,6.10
2023-04-23T18:12:41.793Z,6.30
2023-04-23T18:15:22.961Z,6.47
2023-04-23T18:17:50.569Z,6.65
2023-04-23T18:20:17.830Z,6.70
2023-04-23T18:22:44.893Z,6.45
2023-04-23T18:25:12.879Z,6.80
2023-04-23T18:27:40.613Z,6.85
2023-04-23T18:30:09.060Z,6.25
2023-04-23T18:32:42.175Z,5.93
2023-04-23T18:35:12.335Z,6.60
2023-04-23T18:37:48.574Z,5.80
2023-04-23T18:40:15.855Z,6.32
2023-04-23T18:42:43.235Z,6.60
2023-04-23T18:45:10.880Z,6.75
2023-04-23T18:47:44.460Z,6.88
2023-04-23T18:50:50.394Z,7.43
2023-04-23T18:53:22.195Z,7.57
2023-04-23T18:55:49.672Z,7.20
2023-04-23T18:58:16.757Z,9.82
2023-04-23T19:00:43.910Z,8.07
2023-04-23T19:03:23.639Z,7.47
2023-04-23T19:05:54.389Z,7.78
2023-04-23T19:08:22.854Z,8.02
2023-04-23T19:10:54.232Z,8.20
2023-04-23T19:13:22.990Z,7.25
2023-04-23T19:15:50.810Z,8.32
2023-04-23T19:18:24.938Z,8.68
2023-04-23T19:21:04.914Z,8.35
2023-04-23T19:23:32.277Z,8.18
2023-04-23T19:25:59.455Z,9.18
2023-04-23T19:28:26.565Z,9.23
2023-04-23T19:30:53.842Z,8.27
2023-04-23T19:33:21.084Z,8.90
2023-04-23T19:35:48.550Z,9.23
2023-04-23T19:38:15.979Z,8.90
2023-04-23T19:40:43.493Z,9.05
2023-04-23T19:43:13.116Z,9.27
2023-04-23T19:45:40.555Z,9.60
2023-04-23T19:48:08.581Z,9.63
2023-04-23T19:50:35.946Z,8.50
2023-04-23T19:53:07.386Z,8.65
2023-04-23T19:55:37.642Z,9.02
2023-04-23T19:58:13.054Z,9.05
2023-04-23T20:00:44.830Z,8.73
2023-04-23T20:03:12.911Z,9.43
2023-04-23T20:05:42.500Z,8.75
2023-04-23T20:08:15.402Z,8.68
2023-04-23T20:10:48.127Z,7.82
2023-04-23T20:13:15.417Z,7.60
2023-04-23T20:15:43.241Z,7.60
2023-04-23T20:18:11.073Z,7.93
2023-04-23T20:20:44.396Z,7.88
2023-04-23T20:23:11.592Z,7.97
2023-04-23T20:25:40.067Z,7.70
2023-04-23T20:28:11.862Z,6.90
2023-04-23T20:30:39.009Z,7.43
2023-04-23T20:33:08.813Z,7.32
2023-04-23T20:35:36.112Z,7.38
2023-04-23T20:38:03.666Z,6.97
2023-04-23T20:40:34.756Z,6.15
2023-04-23T20:43:02.291Z,6.50
2023-04-23T20:45:38.101Z,6.00
2023-04-23T20:48:08.615Z,6.00
2023-04-23T20:50:37.579Z,6.32
2023-04-23T20:53:04.914Z,6.30
2023-04-23T20:55:31.993Z,6.28
2023-04-23T20:57:59.182Z,6.50
2023-04-23T21:00:30.361Z,6.50
2023-04-23T21:02:57.855Z,6.13
2023-04-23T21:05:25.452Z,6.20
2023-04-23T21:07:52.997Z,6.00
2023-04-23T21:10:20.675Z,5.65
2023-04-23T21:12:50.625Z,5.55
2023-04-23T21:15:18.128Z,6.03
2023-04-23T21:17:45.320Z,5.45
2023-04-23T21:20:12.542Z,5.10
2023-04-23T21:22:40.053Z,5.35
2023-04-23T21:25:09.887Z,4.70
2023-04-23T21:27:39.652Z,4.93
2023-04-23T21:30:13.044Z,4.68
2023-04-23T21:32:40.342Z,4.10
2023-04-23T21:35:09.366Z,4.50
2023-04-23T21:37:38.099Z,4.18
2023-04-23T21:40:06.157Z,4.15
2023-04-23T21:42:33.192Z,4.28
2023-04-23T21:45:02.093Z,4.38
2023-04-23T21:47:31.743Z,3.63
2023-04-23T21:50:00.307Z,3.60
2023-04-23T21:52:27.491Z,3.90
2023-04-23T21:54:54.579Z,3.92
2023-04-23T21:57:21.692Z,4.03
2023-04-23T21:59:51.957Z,4.00
2023-04-23T22:02:19.285Z,4.70
2023-04-23T22:04:47.013Z,4.18
2023-04-23T22:07:14.143Z,3.92
2023-04-23T22:09:41.676Z,3.92
2023-04-23T22:12:09.556Z,4.53
2023-04-23T22:14:36.811Z,5.10
2023-04-23T22:17:03.992Z,5.03
2023-04-23T22:19:33.813Z,5.82
2023-04-23T22:22:01.661Z,6.30
2023-04-23T22:24:29.146Z,5.82
2023-04-23T22:26:58.263Z,5.60
2023-04-23T22:29:25.517Z,5.90
2023-04-23T22:31:52.934Z,5.30
2023-04-23T22:34:20.295Z,4.88
2023-04-23T22:36:47.370Z,5.82
2023-04-23T22:39:15.505Z,5.30
2023-04-23T22:41:42.575Z,6.07
2023-04-23T22:44:09.757Z,6.18
2023-04-23T22:46:37.444Z,7.00
2023-04-23T22:49:07.941Z,6.72
2023-04-23T22:51:35.483Z,7.75
2023-04-23T22:54:02.593Z,6.57
2023-04-23T22:56:32.930Z,5.97
2023-04-23T22:59:00.012Z,6.22
2023-04-23T23:01:27.229Z,5.85
2023-04-23T23:03:54.607Z,5.82
2023-04-23T23:06:22.171Z,4.93
2023-04-23T23:08:52.106Z,5.65
2023-04-23T23:11:19.503Z,5.07
2023-04-23T23:13:47.983Z,5.72
2023-04-23T23:16:15.359Z,5.20
2023-04-23T23:18:42.380Z,5.32
2023-04-23T23:21:12.261Z,5.28
2023-04-23T23:23:39.459Z,5.30
2023-04-23T23:26:06.644Z,5.63
2023-04-23T23:28:33.811Z,5.20
2023-04-23T23:31:03.971Z,5.00
2023-04-23T23:33:31.336Z,5.53
2023-04-23T23:36:01.781Z,4.93
2023-04-23T23:38:28.963Z,5.30
2023-04-23T23:40:56.588Z,5.45
2023-04-23T23:43:24.287Z,5.18
2023-04-23T23:45:52.532Z,5.25
2023-04-23T23:48:19.981Z,4.70
2023-04-23T23:50:47.555Z,4.55
2023-04-23T23:53:14.687Z,4.70
2023-04-23T23:55:41.909Z,5.22
2023-04-23T23:58:11.998Z,4.40
